Time;durP1;ratioP1;P1;durP2;ratioP2;P2;SDS_P1;SDS_P2;PMS_P1;PMS_P2;Temp;Humidity;BMP_temperature;BMP_pressure;BME280_temperature;BME280_humidity;BME280_pressure;Samples;Min_cycle;Max_cycle;Signal;HPM_P1;HPM_P2
2024/01/14 00:02:04;;;;;;;17.97;3.20;;;2.40;99.90;;;;;;5075308;28;20237;-86
2024/01/14 00:04:31;;;;;;;15.17;3.33;;;2.30;99.90;;;;;;5075334;28;20456;-86
2024/01/14 00:06:58;;;;;;;15.67;3.00;;;2.30;99.90;;;;;;5076380;28;20284;-85
2024/01/14 00:09:25;;;;;;;15.37;3.20;;;2.30;99.90;;;;;;5067371;27;20223;-86
2024/01/14 00:11:52;;;;;;;14.67;3.07;;;2.30;99.90;;;;;;5075019;27;20225;-84
2024/01/14 00:14:19;;;;;;;12.33;2.40;;;2.30;99.90;;;;;;5069700;27;20222;-86
2024/01/14 00:16:47;;;;;;;19.00;2.70;;;2.30;99.90;;;;;;5084069;28;20315;-85
2024/01/14 00:19:14;;;;;;;15.67;3.07;;;2.30;99.90;;;;;;5074326;28;20224;-86
2024/01/14 00:21:41;;;;;;;13.00;2.97;;;2.30;99.90;;;;;;5079018;27;20234;-86
2024/01/14 00:24:07;;;;;;;11.63;2.87;;;2.30;99.90;;;;;;5087123;27;20344;-86
2024/01/14 00:26:35;;;;;;;15.40;3.10;;;2.30;99.90;;;;;;5102868;28;20250;-86
2024/01/14 00:29:03;;;;;;;13.03;2.73;;;2.40;99.90;;;;;;5080727;28;20983;-86
2024/01/14 00:31:30;;;;;;;18.00;3.07;;;2.40;99.90;;;;;;5076757;28;20299;-86
2024/01/14 00:33:58;;;;;;;14.67;3.13;;;2.50;99.90;;;;;;5125206;27;20308;-86
2024/01/14 00:36:25;;;;;;;29.20;4.00;;;2.50;99.90;;;;;;5085308;28;20309;-86
2024/01/14 00:38:51;;;;;;;11.43;2.53;;;2.50;99.90;;;;;;5075063;28;20227;-87
2024/01/14 00:41:20;;;;;;;12.87;2.93;;;2.50;99.90;;;;;;5080084;27;20251;-86
2024/01/14 00:43:46;;;;;;;15.67;3.10;;;2.60;99.90;;;;;;5124613;27;20230;-87
2024/01/14 00:46:13;;;;;;;15.33;2.67;;;2.60;99.90;;;;;;5084547;27;20222;-87
2024/01/14 00:48:40;;;;;;;16.33;2.77;;;2.70;99.90;;;;;;5076278;27;20311;-85
2024/01/14 00:51:08;;;;;;;12.67;2.80;;;2.70;99.90;;;;;;5077071;27;20331;-86
2024/01/14 00:53:35;;;;;;;18.40;3.50;;;2.70;99.90;;;;;;5074967;28;20301;-86
2024/01/14 00:56:01;;;;;;;10.93;2.70;;;2.70;99.90;;;;;;5085658;28;20305;-86
2024/01/14 00:58:28;;;;;;;18.33;3.40;;;2.70;99.90;;;;;;5068168;27;20230;-86
2024/01/14 01:00:55;;;;;;;20.00;3.50;;;2.70;99.90;;;;;;5085776;27;20228;-87
2024/01/14 01:03:22;;;;;;;16.37;3.00;;;2.70;99.90;;;;;;5075603;27;20858;-87
2024/01/14 01:05:48;;;;;;;17.27;3.53;;;2.70;99.90;;;;;;5101663;27;20225;-88
2024/01/14 01:08:17;;;;;;;14.10;2.80;;;2.80;99.90;;;;;;5079154;28;20308;-88
2024/01/14 01:10:44;;;;;;;16.43;3.00;;;2.80;99.90;;;;;;5075134;28;20251;-87
2024/01/14 01:13:10;;;;;;;16.53;3.07;;;2.80;99.90;;;;;;5071009;28;20236;-86
2024/01/14 01:15:37;;;;;;;18.07;4.13;;;2.80;99.90;;;;;;5073791;28;20298;-86
2024/01/14 01:18:05;;;;;;;18.43;3.30;;;2.70;99.90;;;;;;5074195;28;20222;-86
2024/01/14 01:20:32;;;;;;;17.57;3.60;;;2.70;99.90;;;;;;5082048;28;20237;-87
2024/01/14 01:22:59;;;;;;;13.97;2.70;;;2.60;99.90;;;;;;5073577;28;20225;-87
2024/01/14 01:25:27;;;;;;;17.90;3.00;;;2.60;99.90;;;;;;5081398;28;20246;-87
2024/01/14 01:27:54;;;;;;;13.17;3.10;;;2.60;99.90;;;;;;5074114;28;20268;-84
2024/01/14 01:30:21;;;;;;;16.10;3.07;;;2.50;99.90;;;;;;5075245;27;20309;-86
2024/01/14 01:32:49;;;;;;;13.47;2.93;;;2.40;99.90;;;;;;5090770;28;20951;-86
2024/01/14 01:35:16;;;;;;;15.40;3.57;;;2.40;99.90;;;;;;5076576;28;20219;-86
2024/01/14 01:37:43;;;;;;;19.33;4.30;;;2.40;99.90;;;;;;5085027;28;20232;-87
2024/01/14 01:40:10;;;;;;;16.30;2.93;;;2.40;99.90;;;;;;5081301;28;20254;-86
2024/01/14 01:42:38;;;;;;;18.53;3.87;;;2.40;99.90;;;;;;5075201;28;20314;-86
2024/01/14 01:45:06;;;;;;;16.77;3.63;;;2.40;99.90;;;;;;5089940;28;20718;-86
2024/01/14 01:47:33;;;;;;;21.43;3.60;;;2.50;99.90;;;;;;5080688;28;20227;-85
2024/01/14 01:50:00;;;;;;;14.20;3.17;;;2.50;99.90;;;;;;5126291;27;20226;-85
2024/01/14 01:52:28;;;;;;;14.80;3.17;;;2.50;99.90;;;;;;5088690;27;20268;-86
2024/01/14 01:54:56;;;;;;;17.60;3.57;;;2.60;99.90;;;;;;5089726;27;20232;-85
2024/01/14 01:57:24;;;;;;;19.30;3.63;;;2.60;99.90;;;;;;5103397;27;20287;-86
2024/01/14 01:59:52;;;;;;;16.30;3.77;;;2.60;99.90;;;;;;5084285;28;20612;-86
2024/01/14 02:02:21;;;;;;;16.07;3.83;;;2.60;99.90;;;;;;5082372;28;20281;-85
2024/01/14 02:04:48;;;;;;;18.47;4.27;;;2.60;99.90;;;;;;5096234;27;20305;-86
2024/01/14 02:07:15;;;;;;;16.27;3.23;;;2.50;99.90;;;;;;5137793;27;20223;-88
2024/01/14 02:09:42;;;;;;;14.07;3.07;;;2.50;99.90;;;;;;5094487;28;20257;-86
2024/01/14 02:12:09;;;;;;;19.03;3.70;;;2.50;99.90;;;;;;5088331;28;20238;-87
2024/01/14 02:14:36;;;;;;;17.23;3.00;;;2.50;99.90;;;;;;5088306;28;20219;-88
2024/01/14 02:17:05;;;;;;;18.07;3.23;;;2.50;99.90;;;;;;5082979;28;20291;-89
2024/01/14 02:19:32;;;;;;;11.00;2.50;;;2.40;99.90;;;;;;5084877;28;20231;-89
2024/01/14 02:22:05;;;;;;;13.23;2.13;;;2.50;99.90;;;;;;5081880;28;21137;-90
2024/01/14 02:24:33;;;;;;;8.50;2.13;;;2.30;99.90;;;;;;5083389;28;20218;-89
2024/01/14 02:27:00;;;;;;;10.67;1.97;;;2.30;99.90;;;;;;5125114;27;20766;-89
2024/01/14 02:29:28;;;;;;;7.50;1.53;;;2.20;99.90;;;;;;5077092;28;20234;-88
2024/01/14 02:31:55;;;;;;;7.00;1.57;;;2.20;99.90;;;;;;5111247;27;20304;-89
2024/01/14 02:34:22;;;;;;;8.23;1.60;;;2.10;99.90;;;;;;5114730;27;20227;-88
2024/01/14 02:36:49;;;;;;;11.37;1.70;;;2.10;99.90;;;;;;5084088;28;20872;-88
2024/01/14 02:39:16;;;;;;;5.73;1.10;;;2.00;99.90;;;;;;5079410;27;20393;-88
2024/01/14 02:41:44;;;;;;;13.13;2.87;;;2.00;99.90;;;;;;5089313;28;20227;-88
2024/01/14 02:44:11;;;;;;;7.90;1.77;;;1.90;99.90;;;;;;5086578;28;20293;-88
2024/01/14 02:46:39;;;;;;;6.50;1.83;;;1.90;99.90;;;;;;5109794;27;20326;-89
2024/01/14 02:49:06;;;;;;;4.47;1.30;;;1.80;99.90;;;;;;5113647;27;20287;-86
2024/01/14 02:51:32;;;;;;;8.60;1.70;;;1.70;99.90;;;;;;5095256;28;20686;-86
2024/01/14 02:54:01;;;;;;;6.53;1.47;;;1.70;99.90;;;;;;5090160;27;20761;-86
2024/01/14 02:56:27;;;;;;;5.30;1.37;;;1.70;99.90;;;;;;5081118;27;20232;-85
2024/01/14 02:58:55;;;;;;;9.63;1.80;;;1.60;99.90;;;;;;5085437;28;20315;-87
2024/01/14 03:01:22;;;;;;;10.57;1.83;;;1.60;99.90;;;;;;5067844;28;20310;-84
2024/01/14 03:03:49;;;;;;;5.60;1.40;;;1.60;99.90;;;;;;5081720;28;20307;-85
2024/01/14 03:06:16;;;;;;;10.87;2.20;;;1.60;99.90;;;;;;5090163;28;20229;-85
2024/01/14 03:08:43;;;;;;;6.10;1.40;;;1.60;99.90;;;;;;5099369;28;20721;-85
2024/01/14 03:11:10;;;;;;;7.73;1.30;;;1.50;99.90;;;;;;5077503;28;20310;-85
2024/01/14 03:13:37;;;;;;;6.70;1.57;;;1.50;99.90;;;;;;5081958;28;20633;-85
2024/01/14 03:16:06;;;;;;;7.50;1.60;;;1.50;99.90;;;;;;5091609;28;20223;-85
2024/01/14 03:18:33;;;;;;;11.70;2.17;;;1.50;99.90;;;;;;5081081;28;20245;-85
2024/01/14 03:21:00;;;;;;;8.83;1.40;;;1.50;99.90;;;;;;5075436;28;20285;-82
2024/01/14 03:23:27;;;;;;;9.80;1.43;;;1.50;99.90;;;;;;5128879;27;20223;-84
2024/01/14 03:25:54;;;;;;;10.73;1.50;;;1.50;99.90;;;;;;5077585;28;20233;-83
2024/01/14 03:28:21;;;;;;;7.67;1.50;;;1.40;99.90;;;;;;5091600;27;20254;-84
2024/01/14 03:30:49;;;;;;;9.43;1.40;;;1.40;99.90;;;;;;5076536;28;20296;-83
2024/01/14 03:33:17;;;;;;;11.40;1.93;;;1.40;99.90;;;;;;5073882;27;20873;-83
2024/01/14 03:35:44;;;;;;;9.00;1.70;;;1.40;99.90;;;;;;5085002;27;20238;-84
2024/01/14 03:38:12;;;;;;;11.43;2.20;;;1.40;99.90;;;;;;5072802;28;20227;-84
2024/01/14 03:40:39;;;;;;;10.87;2.37;;;1.40;99.90;;;;;;5070844;28;20285;-84
2024/01/14 03:43:06;;;;;;;6.87;1.47;;;1.50;99.90;;;;;;5075006;28;20906;-84
2024/01/14 03:45:33;;;;;;;12.10;1.97;;;1.60;99.90;;;;;;5066050;28;20308;-83
2024/01/14 03:48:01;;;;;;;5.93;1.57;;;1.50;99.90;;;;;;5073619;28;20231;-83
2024/01/14 03:50:29;;;;;;;9.73;1.60;;;1.60;99.90;;;;;;5076937;28;20246;-83
2024/01/14 03:52:56;;;;;;;10.67;1.60;;;1.60;99.90;;;;;;5072973;28;20225;-83
2024/01/14 03:55:23;;;;;;;6.63;1.50;;;1.60;99.90;;;;;;5070322;28;20309;-83
2024/01/14 03:57:50;;;;;;;10.10;2.27;;;1.60;99.90;;;;;;5071628;28;20311;-83
2024/01/14 04:00:17;;;;;;;13.83;2.10;;;1.60;99.90;;;;;;5080301;28;20220;-83
2024/01/14 04:02:44;;;;;;;7.57;1.50;;;1.60;99.90;;;;;;5072440;28;20230;-84
2024/01/14 04:05:11;;;;;;;11.80;2.13;;;1.60;99.90;;;;;;5083308;28;20220;-84
2024/01/14 04:07:39;;;;;;;9.13;1.57;;;1.60;99.90;;;;;;5086427;28;20257;-83
2024/01/14 04:10:06;;;;;;;8.77;2.17;;;1.60;99.90;;;;;;5086587;28;20264;-83
2024/01/14 04:12:33;;;;;;;11.03;2.00;;;1.60;99.90;;;;;;5091843;28;20236;-85
2024/01/14 04:14:59;;;;;;;10.07;2.33;;;1.60;99.90;;;;;;5087270;28;20215;-83
2024/01/14 04:17:26;;;;;;;9.90;2.20;;;1.60;99.90;;;;;;5084919;28;20311;-83
2024/01/14 04:19:53;;;;;;;9.80;1.90;;;1.60;99.90;;;;;;5086531;28;20595;-83
2024/01/14 04:22:20;;;;;;;12.53;2.40;;;1.60;99.90;;;;;;5084909;28;20281;-84
2024/01/14 04:24:48;;;;;;;11.67;1.90;;;1.70;99.90;;;;;;5082439;28;20280;-84
2024/01/14 04:27:14;;;;;;;13.57;2.13;;;1.60;99.90;;;;;;5078021;28;20589;-82
2024/01/14 04:29:41;;;;;;;13.07;2.40;;;1.60;99.90;;;;;;5081628;28;20223;-84
2024/01/14 04:32:08;;;;;;;13.27;2.23;;;1.60;99.90;;;;;;5100767;28;20243;-83
2024/01/14 04:34:35;;;;;;;11.90;2.60;;;1.60;99.90;;;;;;5099619;28;20234;-83
2024/01/14 04:37:01;;;;;;;11.30;1.73;;;1.70;99.90;;;;;;5098537;28;20594;-83
2024/01/14 04:39:28;;;;;;;12.53;2.13;;;1.70;99.90;;;;;;5097279;28;20229;-83
2024/01/14 04:41:57;;;;;;;10.13;1.67;;;1.70;99.90;;;;;;5077244;28;20297;-82
2024/01/14 04:44:24;;;;;;;10.47;2.67;;;1.70;99.90;;;;;;5076571;27;20924;-84
2024/01/14 04:46:51;;;;;;;10.93;1.97;;;1.70;99.90;;;;;;5082898;27;20268;-86
2024/01/14 04:49:17;;;;;;;9.67;2.10;;;1.70;99.90;;;;;;5072256;28;20285;-85
2024/01/14 04:51:44;;;;;;;11.50;1.90;;;1.70;99.90;;;;;;5109022;27;20300;-84
2024/01/14 04:54:11;;;;;;;8.77;2.20;;;1.70;99.90;;;;;;5077237;28;20255;-83
2024/01/14 04:56:39;;;;;;;9.23;2.20;;;1.70;99.90;;;;;;5071954;28;20226;-84
2024/01/14 04:59:07;;;;;;;13.53;2.47;;;1.70;99.90;;;;;;5071424;28;20260;-84
2024/01/14 05:01:34;;;;;;;11.50;2.50;;;1.70;99.90;;;;;;5083866;28;20231;-84
2024/01/14 05:04:02;;;;;;;12.30;1.80;;;1.70;99.90;;;;;;5087445;28;20253;-84
2024/01/14 05:06:29;;;;;;;11.13;2.10;;;1.70;99.90;;;;;;5096420;28;20226;-84
2024/01/14 05:08:56;;;;;;;11.47;2.13;;;1.70;99.90;;;;;;5088101;28;20222;-85
2024/01/14 05:11:23;;;;;;;13.63;2.20;;;1.70;99.90;;;;;;5087959;27;20327;-84
2024/01/14 05:13:50;;;;;;;9.30;1.83;;;1.80;99.90;;;;;;5077522;28;20689;-84
2024/01/14 05:16:19;;;;;;;9.47;2.07;;;1.80;99.90;;;;;;5115514;27;20252;-86
2024/01/14 05:18:46;;;;;;;9.37;1.53;;;1.80;99.90;;;;;;5095272;28;20307;-84
2024/01/14 05:21:16;;;;;;;10.87;2.20;;;1.80;99.90;;;;;;5133909;27;20457;-83
2024/01/14 05:23:42;;;;;;;7.43;1.80;;;1.80;99.90;;;;;;5094692;27;20226;-83
2024/01/14 05:26:09;;;;;;;7.70;1.90;;;1.90;99.90;;;;;;5080546;27;20312;-84
2024/01/14 05:28:36;;;;;;;9.77;1.90;;;1.90;99.90;;;;;;5081669;28;20356;-84
2024/01/14 05:31:03;;;;;;;9.30;2.23;;;1.90;99.90;;;;;;5108008;28;20218;-87
2024/01/14 05:33:31;;;;;;;8.90;2.10;;;1.90;99.90;;;;;;5106092;27;20230;-84
2024/01/14 05:35:58;;;;;;;12.30;2.10;;;1.90;99.90;;;;;;5090949;28;20239;-87
2024/01/14 05:38:25;;;;;;;13.10;2.10;;;2.00;99.90;;;;;;5089620;28;20293;-85
2024/01/14 05:40:51;;;;;;;10.30;2.23;;;2.00;99.90;;;;;;5104525;28;20935;-87
2024/01/14 05:43:18;;;;;;;11.03;1.97;;;2.00;99.90;;;;;;5110793;27;20280;-83
2024/01/14 05:45:45;;;;;;;11.53;1.97;;;2.00;99.90;;;;;;5105643;28;20220;-83
2024/01/14 05:48:12;;;;;;;14.17;2.00;;;2.10;99.90;;;;;;5079432;27;20235;-83
2024/01/14 05:50:40;;;;;;;15.60;2.20;;;2.10;99.90;;;;;;5087070;28;20254;-86
2024/01/14 05:53:07;;;;;;;14.63;2.30;;;2.10;99.90;;;;;;5079520;28;20314;-84
2024/01/14 05:55:33;;;;;;;11.10;1.70;;;2.20;99.90;;;;;;5098923;28;20309;-83
2024/01/14 05:58:00;;;;;;;11.43;1.77;;;2.20;99.90;;;;;;5099696;28;20214;-84
2024/01/14 06:00:27;;;;;;;9.20;1.50;;;2.20;99.90;;;;;;5099489;28;20268;-83
2024/01/14 06:02:54;;;;;;;16.60;2.70;;;2.20;99.90;;;;;;5083165;28;20295;-83
2024/01/14 06:05:20;;;;;;;9.67;2.40;;;2.30;99.90;;;;;;5085786;27;20265;-83
2024/01/14 06:07:49;;;;;;;9.23;1.50;;;2.30;99.90;;;;;;5087493;28;20222;-83
2024/01/14 06:10:16;;;;;;;7.50;1.53;;;2.30;99.90;;;;;;5106285;27;20864;-82
2024/01/14 06:12:42;;;;;;;10.53;1.80;;;2.30;99.90;;;;;;5086300;28;20282;-83
2024/01/14 06:15:10;;;;;;;15.10;2.70;;;2.30;99.90;;;;;;5080184;27;20233;-84
2024/01/14 06:17:37;;;;;;;10.90;2.20;;;2.30;99.90;;;;;;5112043;27;20224;-84
2024/01/14 06:20:04;;;;;;;8.50;2.10;;;2.30;99.90;;;;;;5086663;28;20227;-84
2024/01/14 06:22:31;;;;;;;9.17;1.97;;;2.30;99.90;;;;;;5092581;28;20228;-84
2024/01/14 06:24:59;;;;;;;11.10;2.17;;;2.30;99.90;;;;;;5082634;28;20353;-83
2024/01/14 06:27:27;;;;;;;15.23;2.00;;;2.30;99.90;;;;;;5084735;28;20318;-83
2024/01/14 06:29:54;;;;;;;9.00;1.80;;;2.30;99.90;;;;;;5080492;28;20231;-82
2024/01/14 06:32:21;;;;;;;10.87;2.07;;;2.30;99.90;;;;;;5085228;28;20234;-83
2024/01/14 06:34:47;;;;;;;11.60;1.60;;;2.30;99.90;;;;;;5086668;28;20225;-84
2024/01/14 06:37:14;;;;;;;12.00;1.97;;;2.30;99.90;;;;;;5089042;28;20257;-83
2024/01/14 06:39:41;;;;;;;11.17;1.77;;;2.30;99.90;;;;;;5094628;28;20349;-84
2024/01/14 06:42:10;;;;;;;9.73;2.00;;;2.30;99.90;;;;;;5092859;28;20744;-84
2024/01/14 06:44:38;;;;;;;13.27;2.67;;;2.30;99.90;;;;;;5081683;28;20300;-85
2024/01/14 06:47:05;;;;;;;10.17;1.70;;;2.30;99.90;;;;;;5083735;28;20794;-85
2024/01/14 06:49:32;;;;;;;11.80;2.13;;;2.30;99.90;;;;;;5084617;28;20223;-86
2024/01/14 06:51:58;;;;;;;8.20;2.07;;;2.30;99.90;;;;;;5091873;28;20962;-86
2024/01/14 06:54:25;;;;;;;11.87;3.00;;;2.30;99.90;;;;;;5105029;28;20253;-86
2024/01/14 06:56:52;;;;;;;10.57;2.20;;;2.30;99.90;;;;;;5105442;28;20381;-84
2024/01/14 06:59:21;;;;;;;11.23;2.83;;;2.30;99.90;;;;;;5105089;27;20797;-86
2024/01/14 07:01:48;;;;;;;14.43;2.50;;;2.30;99.90;;;;;;5099886;27;20233;-86
2024/01/14 07:04:15;;;;;;;13.87;3.27;;;2.30;99.90;;;;;;5094104;27;20686;-86
2024/01/14 07:06:42;;;;;;;11.77;2.87;;;2.30;99.90;;;;;;5090138;28;20315;-85
2024/01/14 07:09:10;;;;;;;11.77;2.40;;;2.30;99.90;;;;;;5104166;28;20215;-86
2024/01/14 07:11:37;;;;;;;12.57;2.13;;;2.40;99.90;;;;;;5101584;28;20241;-86
2024/01/14 07:14:04;;;;;;;14.00;2.17;;;2.40;99.90;;;;;;5108706;27;20275;-87
2024/01/14 07:16:32;;;;;;;12.10;2.60;;;2.40;99.90;;;;;;5071899;28;20219;-87
2024/01/14 07:18:59;;;;;;;10.90;1.90;;;2.40;99.90;;;;;;5092840;28;20227;-86
2024/01/14 07:21:26;;;;;;;9.80;2.17;;;2.40;99.90;;;;;;5102823;27;20734;-85
2024/01/14 07:23:52;;;;;;;6.70;1.90;;;2.40;99.90;;;;;;5099918;28;20316;-86
2024/01/14 07:26:20;;;;;;;12.10;2.30;;;2.40;99.90;;;;;;5111274;27;20222;-86
2024/01/14 07:28:47;;;;;;;10.60;1.97;;;2.40;99.90;;;;;;5113844;27;20259;-85
2024/01/14 07:31:20;;;;;;;13.70;2.23;;;2.40;99.90;;;;;;5110245;27;20284;-85
2024/01/14 07:33:49;;;;;;;10.20;2.23;;;2.40;99.90;;;;;;5076468;28;20231;-85
2024/01/14 07:36:15;;;;;;;7.27;1.90;;;2.50;99.90;;;;;;5074997;28;20613;-85
2024/01/14 07:38:42;;;;;;;17.83;2.50;;;2.50;99.90;;;;;;5081157;28;20313;-86
2024/01/14 07:41:12;;;;;;;13.43;2.40;;;2.50;99.90;;;;;;5078818;28;20239;-85
2024/01/14 07:43:39;;;;;;;12.13;2.83;;;2.50;99.90;;;;;;5083300;28;20270;-82
2024/01/14 07:46:06;;;;;;;11.20;2.93;;;2.50;99.90;;;;;;5076227;28;20231;-87
2024/01/14 07:48:33;;;;;;;11.67;1.90;;;2.50;99.90;;;;;;5084832;28;20262;-86
2024/01/14 07:51:01;;;;;;;14.67;3.33;;;2.50;99.90;;;;;;5081306;28;20211;-84
2024/01/14 07:53:28;;;;;;;11.20;2.60;;;2.50;99.90;;;;;;5081262;28;20230;-84
2024/01/14 07:55:55;;;;;;;8.30;2.33;;;2.50;99.90;;;;;;5101530;28;20271;-84
2024/01/14 07:58:22;;;;;;;8.23;1.83;;;2.50;99.90;;;;;;5081223;28;20338;-85
2024/01/14 08:00:48;;;;;;;15.33;2.00;;;2.50;99.90;;;;;;5089719;28;20233;-84
2024/01/14 08:03:15;;;;;;;6.97;1.77;;;2.50;99.90;;;;;;5082734;27;20321;-82
2024/01/14 08:05:42;;;;;;;28.47;3.37;;;2.60;99.90;;;;;;5085342;28;20228;-86
2024/01/14 08:08:10;;;;;;;14.07;2.00;;;2.60;99.90;;;;;;5080442;27;20218;-84
2024/01/14 08:10:37;;;;;;;7.50;2.20;;;2.60;99.90;;;;;;5076047;28;20220;-85
2024/01/14 08:13:04;;;;;;;7.17;2.07;;;2.60;99.90;;;;;;5076705;28;20280;-85
2024/01/14 08:15:31;;;;;;;10.70;2.03;;;2.60;99.90;;;;;;5081865;27;20293;-85
2024/01/14 08:17:57;;;;;;;10.27;1.80;;;2.60;99.90;;;;;;5084608;28;20223;-83
2024/01/14 08:20:25;;;;;;;4.57;1.40;;;2.60;99.90;;;;;;5087944;28;20218;-82
2024/01/14 08:22:53;;;;;;;8.37;2.10;;;2.60;99.90;;;;;;5079561;28;20228;-84
2024/01/14 08:25:21;;;;;;;8.50;2.33;;;2.60;99.90;;;;;;5079389;28;20219;-83
2024/01/14 08:27:48;;;;;;;7.10;1.80;;;2.70;99.90;;;;;;5075147;27;20273;-82
2024/01/14 08:30:15;;;;;;;11.10;2.03;;;2.70;99.90;;;;;;5081023;28;20219;-82
2024/01/14 08:32:43;;;;;;;6.23;1.63;;;2.70;99.90;;;;;;5089302;27;20754;-83
2024/01/14 08:35:10;;;;;;;6.13;1.60;;;2.70;99.90;;;;;;5081315;28;20223;-83
2024/01/14 08:37:37;;;;;;;8.10;1.67;;;2.70;99.90;;;;;;5083810;28;20223;-83
2024/01/14 08:40:05;;;;;;;9.73;2.47;;;2.70;99.90;;;;;;5091433;27;20284;-83
2024/01/14 08:42:33;;;;;;;9.93;1.87;;;2.80;99.90;;;;;;5094879;28;20310;-85
2024/01/14 08:45:00;;;;;;;8.03;1.30;;;2.80;99.90;;;;;;5082784;28;20316;-83
2024/01/14 08:47:26;;;;;;;8.77;2.30;;;2.80;99.90;;;;;;5086669;28;20295;-82
2024/01/14 08:49:53;;;;;;;7.80;1.73;;;2.80;99.90;;;;;;5093876;28;20230;-83
2024/01/14 08:52:20;;;;;;;7.40;1.60;;;2.80;99.90;;;;;;5074227;28;20667;-83
2024/01/14 08:54:46;;;;;;;8.60;1.77;;;2.80;99.90;;;;;;5090341;27;20233;-82
2024/01/14 08:57:13;;;;;;;8.07;1.67;;;2.80;99.90;;;;;;5081861;28;20275;-82
2024/01/14 08:59:42;;;;;;;8.27;1.50;;;2.90;99.90;;;;;;5091817;28;20310;-83
2024/01/14 09:02:09;;;;;;;8.67;1.67;;;2.90;99.90;;;;;;5085625;28;20325;-83
2024/01/14 09:04:35;;;;;;;5.10;1.40;;;2.90;99.90;;;;;;5095743;28;20234;-84
2024/01/14 09:07:02;;;;;;;8.10;1.90;;;2.90;99.90;;;;;;5086666;28;20252;-84
2024/01/14 09:09:29;;;;;;;7.57;1.53;;;2.90;99.90;;;;;;5072996;28;20253;-84
2024/01/14 09:11:56;;;;;;;5.40;1.40;;;2.90;99.90;;;;;;5104335;27;20230;-83
2024/01/14 09:14:22;;;;;;;7.97;1.93;;;2.90;99.90;;;;;;5084226;28;20251;-84
2024/01/14 09:16:51;;;;;;;7.37;1.80;;;2.90;99.90;;;;;;5079395;28;20222;-83
2024/01/14 09:19:17;;;;;;;6.83;2.00;;;3.00;99.90;;;;;;5073658;28;20915;-84
2024/01/14 09:21:44;;;;;;;5.60;1.90;;;3.00;99.90;;;;;;5069605;28;20278;-83
2024/01/14 09:24:11;;;;;;;10.23;2.10;;;3.10;99.90;;;;;;5065954;28;20283;-82
2024/01/14 09:26:37;;;;;;;6.67;1.50;;;3.10;99.90;;;;;;5072700;28;20254;-83
2024/01/14 09:29:04;;;;;;;12.43;2.00;;;3.20;99.90;;;;;;5069154;28;20228;-83
2024/01/14 09:31:31;;;;;;;12.43;2.37;;;3.40;99.90;;;;;;5079976;28;20223;-83
2024/01/14 09:33:59;;;;;;;6.67;1.77;;;3.50;99.90;;;;;;5073004;28;20285;-82
2024/01/14 09:36:27;;;;;;;6.77;1.77;;;3.60;99.90;;;;;;5082996;28;20220;-83
2024/01/14 09:38:55;;;;;;;10.57;2.30;;;3.70;99.90;;;;;;5092296;28;20270;-82
2024/01/14 09:41:32;;;;;;;9.83;2.33;;;3.80;99.90;;;;;;5105340;27;20354;-82
2024/01/14 09:44:00;;;;;;;8.07;2.50;;;3.80;99.90;;;;;;5099709;27;20309;-82
2024/01/14 09:46:27;;;;;;;6.23;1.80;;;3.90;99.90;;;;;;5097095;27;20314;-81
2024/01/14 09:48:56;;;;;;;8.80;2.50;;;3.80;99.90;;;;;;5097298;27;20237;-82
2024/01/14 09:51:29;;;;;;;7.53;2.00;;;3.80;99.90;;;;;;5089131;27;20217;-82
2024/01/14 09:53:58;;;;;;;10.60;2.60;;;3.80;99.90;;;;;;5079379;28;20753;-83
2024/01/14 09:56:25;;;;;;;8.67;2.80;;;3.70;99.90;;;;;;5115080;27;20313;-83
2024/01/14 09:58:54;;;;;;;12.80;2.60;;;3.70;99.90;;;;;;5093805;28;20308;-82
2024/01/14 10:01:23;;;;;;;8.30;2.07;;;3.70;99.90;;;;;;5082320;27;20224;-84
2024/01/14 10:03:50;;;;;;;8.63;2.10;;;3.80;99.90;;;;;;5079230;28;20231;-84
2024/01/14 10:06:16;;;;;;;6.03;2.10;;;3.80;99.90;;;;;;5089739;28;20300;-84
2024/01/14 10:08:45;;;;;;;7.43;2.00;;;3.90;99.90;;;;;;5107044;27;20319;-84
2024/01/14 10:11:11;;;;;;;8.20;2.30;;;3.90;99.90;;;;;;5087095;28;20238;-84
2024/01/14 10:13:38;;;;;;;9.33;2.87;;;3.90;99.90;;;;;;5100225;27;20286;-83
2024/01/14 10:16:05;;;;;;;8.80;2.30;;;3.90;99.90;;;;;;5090768;28;20311;-84
2024/01/14 10:18:32;;;;;;;9.13;2.13;;;3.80;99.90;;;;;;5085339;28;20234;-83
2024/01/14 10:21:00;;;;;;;5.87;2.00;;;3.80;99.90;;;;;;5101472;27;20223;-83
2024/01/14 10:23:27;;;;;;;3.77;1.63;;;3.70;99.90;;;;;;5081719;28;20849;-84
2024/01/14 10:26:01;;;;;;;7.07;1.77;;;3.70;99.90;;;;;;5070926;28;20288;-84
2024/01/14 10:28:31;;;;;;;7.90;2.00;;;3.60;99.90;;;;;;5127225;27;20216;-84
2024/01/14 10:30:59;;;;;;;7.20;1.83;;;3.50;99.90;;;;;;5075304;28;20295;-84
2024/01/14 10:33:26;;;;;;;5.93;2.00;;;3.50;99.90;;;;;;5089340;28;20274;-83
2024/01/14 10:35:53;;;;;;;5.43;2.07;;;3.50;99.90;;;;;;5085767;28;20223;-84
2024/01/14 10:38:22;;;;;;;7.33;2.53;;;3.40;99.90;;;;;;5078428;28;20223;-84
2024/01/14 10:40:49;;;;;;;9.17;2.53;;;3.40;99.90;;;;;;5084847;28;20230;-84
2024/01/14 10:43:17;;;;;;;7.03;2.60;;;3.30;99.90;;;;;;5116907;27;20766;-84
2024/01/14 10:45:48;;;;;;;6.87;2.20;;;3.40;99.90;;;;;;5079361;28;20338;-84
2024/01/14 10:48:16;;;;;;;7.60;1.87;;;3.40;99.90;;;;;;5083692;28;20711;-84
2024/01/14 10:50:45;;;;;;;7.80;2.23;;;3.40;99.90;;;;;;5084890;27;20265;-84
2024/01/14 10:53:19;;;;;;;7.23;2.27;;;3.40;99.90;;;;;;5117945;27;20224;-84
2024/01/14 10:55:48;;;;;;;8.30;2.40;;;3.40;99.90;;;;;;5129625;27;20402;-84
2024/01/14 10:58:25;;;;;;;7.07;2.07;;;3.40;99.90;;;;;;5079009;28;20729;-84
2024/01/14 11:00:53;;;;;;;14.40;4.47;;;3.40;99.90;;;;;;5099892;28;20211;-84
2024/01/14 11:03:20;;;;;;;9.90;2.57;;;3.40;99.90;;;;;;5118250;27;20790;-84
2024/01/14 11:05:47;;;;;;;4.63;2.00;;;3.40;99.90;;;;;;5084280;28;20261;-85
2024/01/14 11:08:16;;;;;;;6.53;2.53;;;3.40;99.90;;;;;;5085969;27;20258;-84
2024/01/14 11:10:44;;;;;;;9.13;2.20;;;3.40;99.90;;;;;;5081812;28;20227;-84
2024/01/14 11:13:21;;;;;;;8.00;2.50;;;3.40;99.90;;;;;;5078608;27;20232;-84
2024/01/14 11:15:56;;;;;;;8.73;2.03;;;3.50;99.90;;;;;;5069165;28;20218;-84
2024/01/14 11:18:28;;;;;;;12.03;3.07;;;3.50;99.90;;;;;;5123654;27;20311;-84
2024/01/14 11:21:04;;;;;;;10.77;2.60;;;3.50;99.90;;;;;;5080332;28;20218;-84
2024/01/14 11:23:32;;;;;;;7.17;2.20;;;3.60;99.90;;;;;;5091261;28;20973;-84
2024/01/14 11:25:59;;;;;;;7.27;2.00;;;3.60;99.90;;;;;;5076935;28;20232;-84
2024/01/14 11:28:28;;;;;;;4.67;2.03;;;3.60;99.90;;;;;;5084657;28;20268;-85
2024/01/14 11:30:59;;;;;;;6.40;2.10;;;3.60;99.90;;;;;;5088527;28;20737;-84
2024/01/14 11:33:31;;;;;;;7.87;2.20;;;3.60;99.90;;;;;;5091191;28;20239;-84
2024/01/14 11:35:58;;;;;;;7.40;1.97;;;3.60;99.90;;;;;;5082899;28;20231;-84
2024/01/14 11:38:36;;;;;;;6.20;1.90;;;3.60;99.90;;;;;;5083849;28;20232;-85
2024/01/14 11:41:29;;;;;;;8.80;2.30;;;3.50;99.90;;;;;;5083334;28;20213;-85
2024/01/14 11:43:58;;;;;;;4.17;1.50;;;3.50;99.90;;;;;;5089514;28;20247;-84
2024/01/14 11:46:43;;;;;;;8.53;2.20;;;3.50;99.90;;;;;;5081854;28;20223;-84
2024/01/14 11:49:10;;;;;;;5.20;1.37;;;3.50;99.90;;;;;;5084938;28;20237;-84
2024/01/14 11:51:43;;;;;;;6.23;1.73;;;3.50;99.90;;;;;;5079355;28;20231;-84
2024/01/14 11:54:11;;;;;;;6.97;1.83;;;3.40;99.90;;;;;;5090500;27;20243;-84
2024/01/14 11:56:38;;;;;;;8.20;1.80;;;3.40;99.90;;;;;;5096746;27;20232;-84
2024/01/14 11:59:08;;;;;;;8.43;2.00;;;3.40;99.90;;;;;;5102796;28;20751;-84
2024/01/14 12:01:36;;;;;;;6.77;2.20;;;3.40;99.90;;;;;;5098065;28;20287;-84
2024/01/14 12:04:05;;;;;;;7.73;2.00;;;3.40;99.90;;;;;;5127976;27;20222;-84
2024/01/14 12:06:40;;;;;;;7.53;1.90;;;3.50;99.90;;;;;;5100106;28;20361;-83
2024/01/14 12:09:07;;;;;;;6.37;1.80;;;3.50;99.90;;;;;;5095100;28;20225;-85
2024/01/14 12:11:35;;;;;;;4.67;2.03;;;3.50;99.90;;;;;;5082740;28;21003;-84
2024/01/14 12:14:02;;;;;;;7.30;2.07;;;3.60;99.90;;;;;;5079808;28;20220;-84
2024/01/14 12:16:29;;;;;;;6.90;1.60;;;3.50;99.90;;;;;;5082328;28;20278;-83
2024/01/14 12:18:55;;;;;;;3.97;1.50;;;3.60;99.90;;;;;;5075291;28;20694;-83
2024/01/14 12:21:24;;;;;;;7.30;1.83;;;3.60;99.90;;;;;;5081163;28;20249;-84
2024/01/14 12:23:51;;;;;;;6.50;2.00;;;3.60;99.90;;;;;;5083507;28;20230;-84
2024/01/14 12:26:19;;;;;;;6.30;1.90;;;3.60;99.90;;;;;;5082094;27;20884;-84
2024/01/14 12:28:46;;;;;;;7.13;2.00;;;3.60;99.90;;;;;;5083036;28;20218;-84
2024/01/14 12:31:19;;;;;;;7.30;2.00;;;3.60;99.90;;;;;;5080932;28;20320;-84
2024/01/14 12:33:46;;;;;;;4.63;2.03;;;3.60;99.90;;;;;;5072453;28;20231;-84
2024/01/14 12:36:13;;;;;;;7.77;1.90;;;3.60;99.90;;;;;;5108287;27;20250;-84
2024/01/14 12:38:41;;;;;;;5.70;2.13;;;3.60;99.90;;;;;;5086431;28;20302;-84
2024/01/14 12:41:09;;;;;;;14.47;2.20;;;3.60;99.90;;;;;;5114227;27;20231;-84
2024/01/14 12:43:36;;;;;;;13.37;2.17;;;3.60;99.90;;;;;;5114669;27;20307;-84
2024/01/14 12:46:04;;;;;;;6.27;1.93;;;3.60;99.90;;;;;;5088088;28;20229;-83
2024/01/14 12:48:31;;;;;;;5.50;2.00;;;3.60;99.90;;;;;;5105087;28;20268;-83
2024/01/14 12:50:59;;;;;;;6.03;2.03;;;3.70;99.90;;;;;;5082626;28;20263;-83
2024/01/14 12:53:27;;;;;;;5.20;1.43;;;3.70;99.90;;;;;;5083868;28;20389;-83
2024/01/14 12:56:10;;;;;;;6.47;1.90;;;3.70;99.90;;;;;;5099737;28;20258;-83